createdAt,value
2023-03-31T00:00:48.167Z,50.834877
2023-03-31T00:01:48.289Z,50.834843
2023-03-31T00:02:48.249Z,50.834854
2023-03-31T00:03:48.260Z,50.834873
2023-03-31T00:04:48.176Z,50.834854
2023-03-31T00:05:48.238Z,50.834854
2023-03-31T00:06:48.116Z,50.834846
2023-03-31T00:07:48.143Z,50.834877
2023-03-31T00:08:48.135Z,50.834846
2023-03-31T00:09:48.089Z,50.834839
2023-03-31T00:10:48.073Z,50.834808
2023-03-31T00:11:48.096Z,50.834831
2023-03-31T00:12:48.104Z,50.834816
2023-03-31T00:13:48.079Z,50.834846
2023-03-31T00:14:48.077Z,50.834805
2023-03-31T00:15:48.076Z,50.834831
2023-03-31T00:16:48.132Z,50.834835
2023-03-31T00:17:48.082Z,50.834824
2023-03-31T00:18:48.085Z,50.834816
2023-03-31T00:19:48.042Z,50.834770
2023-03-31T00:20:48.034Z,50.834801
2023-03-31T00:21:48.018Z,50.834831
2023-03-31T00:22:47.993Z,50.834827
2023-03-31T00:23:47.980Z,50.834854
2023-03-31T00:24:48.114Z,50.834827
2023-03-31T00:25:47.964Z,50.834793
2023-03-31T00:26:47.981Z,50.834808
2023-03-31T00:27:47.968Z,50.834808
2023-03-31T00:28:47.937Z,50.834789
2023-03-31T00:29:47.956Z,50.834827
2023-03-31T00:30:47.994Z,50.834812
2023-03-31T00:31:47.987Z,50.834820
2023-03-31T00:32:47.979Z,50.834824
2023-03-31T00:33:47.941Z,50.834827
2023-03-31T00:34:47.911Z,50.834816
2023-03-31T00:35:47.930Z,50.834824
2023-03-31T00:36:48.030Z,50.834797
2023-03-31T00:37:47.892Z,50.834793
2023-03-31T00:38:47.905Z,50.834801
2023-03-31T00:39:47.886Z,50.834808
2023-03-31T00:40:47.870Z,50.834812
2023-03-31T00:41:47.848Z,50.834805
2023-03-31T00:42:47.885Z,50.834808
2023-03-31T00:43:47.831Z,50.834805
2023-03-31T00:44:47.858Z,50.834805
2023-03-31T00:45:48.840Z,50.834797
2023-03-31T00:46:47.829Z,50.834835
2023-03-31T00:47:47.910Z,50.834782
2023-03-31T00:48:47.788Z,50.834801
2023-03-31T00:49:47.797Z,50.834820
2023-03-31T00:50:47.796Z,50.834816
2023-03-31T00:51:47.832Z,50.834816
2023-03-31T00:52:47.757Z,50.834808
2023-03-31T00:53:47.777Z,50.834816
2023-03-31T00:54:47.757Z,50.834816
2023-03-31T00:55:47.761Z,50.834808
2023-03-31T00:56:48.777Z,50.834820
2023-03-31T00:57:47.714Z,50.834816
2023-03-31T00:58:47.739Z,50.834801
2023-03-31T00:59:47.743Z,50.834801
2023-03-31T01:00:47.697Z,50.834820
2023-03-31T01:01:47.736Z,50.834801
2023-03-31T01:02:47.733Z,50.834808
2023-03-31T01:03:47.692Z,50.834820
2023-03-31T01:04:47.681Z,50.834805
2023-03-31T01:05:47.653Z,50.834793
2023-03-31T01:06:47.662Z,50.834801
2023-03-31T01:07:47.733Z,50.834824
2023-03-31T01:08:47.687Z,50.834808
2023-03-31T01:09:47.687Z,50.834808
2023-03-31T01:10:47.673Z,50.834805
2023-03-31T01:11:47.628Z,50.834805
2023-03-31T01:12:47.617Z,50.834789
2023-03-31T01:13:47.603Z,50.834789
2023-03-31T01:14:47.612Z,50.834782
2023-03-31T01:15:47.598Z,50.834778
2023-03-31T01:16:47.651Z,50.834789
2023-03-31T01:17:47.758Z,50.834797
2023-03-31T01:18:47.594Z,50.834797
2023-03-31T01:19:47.592Z,50.834793
2023-03-31T01:20:47.534Z,50.834793
2023-03-31T01:21:47.573Z,50.834797
2023-03-31T01:22:47.545Z,50.834801
2023-03-31T01:23:47.556Z,50.834797
2023-03-31T01:24:47.523Z,50.834808
2023-03-31T01:25:47.518Z,50.834808
2023-03-31T01:26:47.489Z,50.834808
2023-03-31T01:27:47.500Z,50.834808
2023-03-31T01:28:47.479Z,50.834789
2023-03-31T01:29:47.481Z,50.834785
2023-03-31T01:30:47.486Z,50.834793
2023-03-31T01:31:47.534Z,50.834778
2023-03-31T01:32:47.511Z,50.834801
2023-03-31T01:33:47.475Z,50.834808
2023-03-31T01:34:47.450Z,50.834820
2023-03-31T01:35:47.520Z,50.834816
2023-03-31T01:36:48.247Z,50.834827
2023-03-31T01:37:47.418Z,50.834843
2023-03-31T01:38:47.433Z,50.834835
2023-03-31T01:39:47.413Z,50.834827
2023-03-31T01:40:47.441Z,50.834797
2023-03-31T01:41:47.387Z,50.834805
2023-03-31T01:42:47.368Z,50.834801
2023-03-31T01:43:47.385Z,50.834827
2023-03-31T01:44:47.369Z,50.834820
2023-03-31T01:45:47.373Z,50.834820
2023-03-31T01:46:47.416Z,50.834846
2023-03-31T01:47:47.436Z,50.834797
2023-03-31T01:48:47.328Z,50.834812
2023-03-31T01:49:47.317Z,50.834789
2023-03-31T01:50:48.263Z,50.834789
2023-03-31T01:51:47.362Z,50.834774
2023-03-31T01:52:47.315Z,50.834805
2023-03-31T01:53:47.306Z,50.834812
2023-03-31T01:54:47.287Z,50.834812
2023-03-31T01:55:47.374Z,50.834797
2023-03-31T01:56:47.333Z,50.834824
2023-03-31T01:57:47.312Z,50.834808
2023-03-31T01:58:47.247Z,50.834827
2023-03-31T01:59:47.265Z,50.834820
2023-03-31T02:00:47.233Z,50.834808
2023-03-31T02:01:47.270Z,50.834801
2023-03-31T02:02:47.319Z,50.834816
2023-03-31T02:04:19.698Z,50.834801
2023-03-31T02:04:47.220Z,50.834805
2023-03-31T02:05:48.179Z,50.834820
2023-03-31T02:07:19.717Z,50.834831
2023-03-31T02:08:19.177Z,50.834801
2023-03-31T02:09:19.783Z,50.834789
2023-03-31T02:10:19.123Z,50.834805
2023-03-31T02:11:19.830Z,50.834816
2023-03-31T02:11:47.892Z,50.834820
2023-03-31T02:12:47.180Z,50.834793
2023-03-31T02:13:47.125Z,50.834793
2023-03-31T02:14:47.162Z,50.834820
2023-03-31T02:15:47.162Z,50.834774
2023-03-31T02:16:47.222Z,50.834782
2023-03-31T02:17:47.180Z,50.834839
2023-03-31T02:18:47.126Z,50.834705
2023-03-31T02:19:47.091Z,50.834789
2023-03-31T02:20:47.131Z,50.834724
2023-03-31T02:21:47.074Z,50.834682
2023-03-31T02:22:47.073Z,50.834705
2023-03-31T02:23:47.065Z,50.834747
2023-03-31T02:24:47.057Z,50.834774
2023-03-31T02:25:47.103Z,50.834793
2023-03-31T02:26:47.086Z,50.834785
2023-03-31T02:27:47.067Z,50.834797
2023-03-31T02:28:47.054Z,50.834801
2023-03-31T02:29:47.050Z,50.834808
2023-03-31T02:30:47.021Z,50.834801
2023-03-31T02:31:47.036Z,50.834793
2023-03-31T02:32:47.134Z,50.834816
2023-03-31T02:33:46.982Z,50.834801
2023-03-31T02:34:47.006Z,50.834816
2023-03-31T02:35:47.051Z,50.834816
2023-03-31T02:36:46.957Z,50.834789
2023-03-31T02:37:46.955Z,50.834785
2023-03-31T02:38:47.891Z,50.834793
2023-03-31T02:39:46.947Z,50.834816
2023-03-31T02:40:46.959Z,50.834820
2023-03-31T02:41:46.970Z,50.834808
2023-03-31T02:42:46.923Z,50.834808
2023-03-31T02:43:46.905Z,50.834824
2023-03-31T02:44:46.907Z,50.834801
2023-03-31T02:45:46.950Z,50.834774
2023-03-31T02:46:47.007Z,50.834782
2023-03-31T02:47:46.902Z,50.834843
2023-03-31T02:48:46.877Z,50.834770
2023-03-31T02:49:47.815Z,50.834782
2023-03-31T02:50:46.887Z,50.834858
2023-03-31T02:51:46.885Z,50.834827
2023-03-31T02:52:46.867Z,50.834827
2023-03-31T02:53:46.901Z,50.834831
2023-03-31T02:54:46.833Z,50.834827
2023-03-31T02:55:46.837Z,50.834831
2023-03-31T02:56:46.858Z,50.834835
2023-03-31T02:57:46.801Z,50.834862
2023-03-31T02:58:46.805Z,50.834827
2023-03-31T02:59:46.792Z,50.834835
2023-03-31T03:00:46.776Z,50.834843
2023-03-31T03:01:46.850Z,50.834835
2023-03-31T03:02:46.850Z,50.834812
2023-03-31T03:03:46.758Z,50.834839
2023-03-31T03:04:46.844Z,50.834839
2023-03-31T03:05:46.738Z,50.834846
2023-03-31T03:06:46.750Z,50.834850
2023-03-31T03:07:46.761Z,50.834854
2023-03-31T03:08:46.745Z,50.834881
2023-03-31T03:09:46.727Z,50.834862
2023-03-31T03:10:46.716Z,50.834862
2023-03-31T03:11:47.788Z,50.834854
2023-03-31T03:12:47.259Z,50.834896
2023-03-31T03:13:46.698Z,50.834904
2023-03-31T03:14:46.716Z,50.834934
2023-03-31T03:15:46.673Z,50.834927
2023-03-31T03:16:46.709Z,50.834972
2023-03-31T03:17:46.749Z,50.834953
2023-03-31T03:18:46.654Z,50.834915
2023-03-31T03:19:46.638Z,50.834915
2023-03-31T03:20:46.634Z,50.834904
2023-03-31T03:21:46.627Z,50.834896
2023-03-31T03:22:46.630Z,50.834881
2023-03-31T03:23:46.605Z,50.834862
2023-03-31T03:24:46.628Z,50.834850
2023-03-31T03:25:46.625Z,50.834831
2023-03-31T03:26:46.592Z,50.834862
2023-03-31T03:27:46.644Z,50.834866
2023-03-31T03:28:46.609Z,50.834846
2023-03-31T03:29:46.560Z,50.834854
2023-03-31T03:30:46.583Z,50.834854
2023-03-31T03:31:46.671Z,50.834850
2023-03-31T03:32:46.633Z,50.834843
2023-03-31T03:33:46.572Z,50.834846
2023-03-31T03:34:46.546Z,50.834854
2023-03-31T03:35:46.593Z,50.834850
2023-03-31T03:36:46.506Z,50.834866
2023-03-31T03:37:46.505Z,50.834858
2023-03-31T03:38:46.509Z,50.834866
2023-03-31T03:39:46.524Z,50.834862
2023-03-31T03:40:48.283Z,50.834873
2023-03-31T03:41:46.474Z,50.834881
2023-03-31T03:42:46.490Z,50.834888
2023-03-31T03:43:46.463Z,50.834896
2023-03-31T03:44:46.485Z,50.834877
2023-03-31T03:45:46.439Z,50.834869
2023-03-31T03:46:46.520Z,50.834869
2023-03-31T04:06:02.718Z,50.834888
2023-03-31T04:07:02.725Z,50.834885
2023-03-31T04:08:02.727Z,50.834885
2023-03-31T04:09:02.752Z,50.834881
2023-03-31T04:10:02.717Z,50.834896
2023-03-31T04:11:02.697Z,50.834892
2023-03-31T04:12:03.360Z,50.834866
2023-03-31T04:13:03.405Z,50.834862
2023-03-31T04:14:02.671Z,50.834862
2023-03-31T04:15:37.237Z,50.834892
2023-03-31T04:16:02.690Z,50.834873
2023-03-31T04:17:02.643Z,50.834885
2023-03-31T04:18:02.680Z,50.834877
2023-03-31T04:19:02.622Z,50.834881
2023-03-31T04:20:02.610Z,50.834888
2023-03-31T04:21:03.331Z,50.834835
2023-03-31T04:22:02.654Z,50.834854
2023-03-31T04:23:02.616Z,50.834869
2023-03-31T04:24:02.621Z,50.834854
2023-03-31T04:25:02.596Z,50.834854
2023-03-31T04:26:02.626Z,50.834846
2023-03-31T04:27:02.562Z,50.834843
2023-03-31T04:28:02.541Z,50.834858
2023-03-31T04:29:02.549Z,50.834835
2023-03-31T04:30:02.548Z,50.834843
2023-03-31T04:31:02.534Z,50.834831
2023-03-31T04:32:02.576Z,50.834824
2023-03-31T04:33:02.547Z,50.834866
2023-03-31T04:34:02.757Z,50.834846
2023-03-31T04:35:02.516Z,50.834808
2023-03-31T04:36:02.529Z,50.834843
2023-03-31T04:37:04.171Z,50.834831
2023-03-31T04:38:02.483Z,50.834835
2023-03-31T04:39:02.487Z,50.834843
2023-03-31T04:40:02.471Z,50.834824
2023-03-31T04:41:02.473Z,50.834835
2023-03-31T04:42:02.471Z,50.834843
2023-03-31T04:43:02.438Z,50.834846
2023-03-31T04:44:02.421Z,50.834831
2023-03-31T04:45:02.465Z,50.834839
2023-03-31T04:46:02.508Z,50.834816
2023-03-31T04:47:02.385Z,50.834850
2023-03-31T04:48:02.443Z,50.834831
2023-03-31T04:49:02.378Z,50.834858
2023-03-31T04:50:02.402Z,50.834850
2023-03-31T04:51:02.379Z,50.834831
2023-03-31T04:52:02.359Z,50.834850
2023-03-31T04:53:02.361Z,50.834831
2023-03-31T04:54:02.348Z,50.834839
2023-03-31T04:55:02.365Z,50.834862
2023-03-31T04:56:03.449Z,50.834839
2023-03-31T04:57:02.389Z,50.834854
2023-03-31T04:58:02.321Z,50.834846
2023-03-31T04:59:02.297Z,50.834846
2023-03-31T05:00:02.342Z,50.834839
2023-03-31T05:01:02.398Z,50.834846
2023-03-31T05:02:02.395Z,50.834843
2023-03-31T05:03:02.340Z,50.834831
2023-03-31T05:04:02.266Z,50.834824
2023-03-31T05:05:02.256Z,50.834827
2023-03-31T05:06:02.296Z,50.834831
2023-03-31T05:07:02.271Z,50.834835
2023-03-31T05:08:02.323Z,50.834831
2023-03-31T05:09:02.245Z,50.834835
2023-03-31T05:10:02.216Z,50.834831
2023-03-31T05:11:02.245Z,50.834831
2023-03-31T05:12:02.216Z,50.834850
2023-03-31T05:13:02.196Z,50.834820
2023-03-31T05:14:02.229Z,50.834843
2023-03-31T05:15:02.186Z,50.834835
2023-03-31T05:16:02.234Z,50.834835
2023-03-31T05:17:02.193Z,50.834850
2023-03-31T05:18:02.204Z,50.834850
2023-03-31T05:19:02.214Z,50.834850
2023-03-31T05:20:02.185Z,50.834846
2023-03-31T05:21:02.131Z,50.834850
2023-03-31T05:22:02.130Z,50.834835
2023-03-31T05:23:02.174Z,50.834858
2023-03-31T05:24:02.170Z,50.834839
2023-03-31T05:25:02.221Z,50.834831
2023-03-31T05:26:02.165Z,50.834827
2023-03-31T05:27:02.088Z,50.834843
2023-03-31T05:28:03.383Z,50.834831
2023-03-31T05:29:02.095Z,50.834820
2023-03-31T05:30:02.129Z,50.834827
2023-03-31T05:31:02.095Z,50.834812
2023-03-31T05:32:02.141Z,50.834820
2023-03-31T05:33:02.155Z,50.834824
2023-03-31T05:34:02.079Z,50.834835
2023-03-31T05:35:03.204Z,50.834824
2023-03-31T05:36:02.045Z,50.834839
2023-03-31T05:37:02.016Z,50.834839
2023-03-31T05:38:02.040Z,50.834824
2023-03-31T05:39:02.040Z,50.834820
2023-03-31T05:40:02.481Z,50.834827
2023-03-31T05:41:01.998Z,50.834816
2023-03-31T05:42:02.781Z,50.834820
2023-03-31T05:43:01.955Z,50.834827
2023-03-31T05:44:03.733Z,50.834824
2023-03-31T05:45:02.066Z,50.834808
2023-03-31T05:46:02.014Z,50.834820
2023-03-31T05:47:01.929Z,50.834812
2023-03-31T05:48:01.982Z,50.834824
2023-03-31T05:49:01.915Z,50.834827
2023-03-31T05:50:01.933Z,50.834824
2023-03-31T05:51:01.897Z,50.834835
2023-03-31T05:52:01.917Z,50.834835
2023-03-31T05:53:01.885Z,50.834812
2023-03-31T05:54:02.814Z,50.834820
2023-03-31T05:55:02.876Z,50.834824
2023-03-31T05:56:02.436Z,50.834831
2023-03-31T05:57:02.081Z,50.834835
2023-03-31T05:58:01.865Z,50.834843
2023-03-31T05:59:01.844Z,50.834827
2023-03-31T06:00:01.845Z,50.834831
2023-03-31T06:01:01.862Z,50.834831
2023-03-31T06:02:01.908Z,50.834827
2023-03-31T06:03:02.030Z,50.834835
2023-03-31T06:04:01.935Z,50.834808
2023-03-31T06:05:01.811Z,50.834839
2023-03-31T06:06:01.809Z,50.834812
2023-03-31T06:07:01.790Z,50.834816
2023-03-31T06:08:01.788Z,50.834820
2023-03-31T06:09:01.803Z,50.834839
2023-03-31T06:10:01.776Z,50.834839
2023-03-31T06:11:01.761Z,50.834824
2023-03-31T06:12:01.781Z,50.834820
2023-03-31T06:13:01.772Z,50.834805
2023-03-31T06:14:01.739Z,50.834816
2023-03-31T06:15:01.737Z,50.834808
2023-03-31T06:16:01.740Z,50.834824
2023-03-31T06:17:01.737Z,50.834824
2023-03-31T06:18:01.747Z,50.834816
2023-03-31T06:19:01.703Z,50.834812
2023-03-31T06:20:04.271Z,50.834782
2023-03-31T06:21:02.684Z,50.834766
2023-03-31T06:22:01.726Z,50.834782
2023-03-31T06:23:02.704Z,50.834797
2023-03-31T06:24:01.693Z,50.834816
2023-03-31T06:25:01.923Z,50.834816
2023-03-31T06:26:01.688Z,50.834820
2023-03-31T06:27:01.728Z,50.834820
2023-03-31T06:28:01.669Z,50.834805
2023-03-31T06:29:02.130Z,50.834805
2023-03-31T06:30:01.739Z,50.834789
2023-03-31T06:31:02.289Z,50.834770
2023-03-31T06:32:01.639Z,50.834782
2023-03-31T06:33:01.659Z,50.834774
2023-03-31T06:34:01.618Z,50.834789
2023-03-31T06:35:01.651Z,50.834785
2023-03-31T06:36:01.625Z,50.834785
2023-03-31T06:37:01.609Z,50.834789
2023-03-31T06:38:01.575Z,50.834793
2023-03-31T06:39:01.610Z,50.834778
2023-03-31T06:40:01.539Z,50.834793
2023-03-31T06:41:01.592Z,50.834801
2023-03-31T06:42:01.536Z,50.834801
2023-03-31T06:43:01.587Z,50.834808
2023-03-31T06:44:01.527Z,50.834808
2023-03-31T06:45:01.604Z,50.834789
2023-03-31T06:46:01.587Z,50.834801
2023-03-31T06:47:01.562Z,50.834808
2023-03-31T06:48:01.512Z,50.834805
2023-03-31T06:49:01.622Z,50.834782
2023-03-31T06:50:01.627Z,50.834785
2023-03-31T06:51:01.487Z,50.834785
2023-03-31T06:52:01.470Z,50.834805
2023-03-31T06:53:01.688Z,50.834789
2023-03-31T06:54:01.482Z,50.834831
2023-03-31T06:55:01.461Z,50.834797
2023-03-31T06:56:01.422Z,50.834789
2023-03-31T06:57:01.450Z,50.834785
2023-03-31T06:58:01.425Z,50.834782
2023-03-31T06:59:01.412Z,50.834785
2023-03-31T07:00:01.411Z,50.834755
2023-03-31T07:01:01.428Z,50.834778
2023-03-31T07:02:01.549Z,50.834785
2023-03-31T07:03:01.460Z,50.834755
2023-03-31T07:04:01.365Z,50.834778
2023-03-31T07:05:01.377Z,50.834770
2023-03-31T07:06:01.387Z,50.834782
2023-03-31T07:07:01.337Z,50.834770
2023-03-31T07:08:01.347Z,50.834778
2023-03-31T07:09:02.300Z,50.834774
2023-03-31T07:10:01.332Z,50.834774
2023-03-31T07:11:01.325Z,50.834778
2023-03-31T07:12:01.336Z,50.834763
2023-03-31T07:13:04.361Z,50.834755
2023-03-31T07:14:01.307Z,50.834774
2023-03-31T07:15:01.299Z,50.834770
2023-03-31T07:16:01.378Z,50.834770
2023-03-31T07:17:01.285Z,50.834770
2023-03-31T07:18:01.347Z,50.834770
2023-03-31T07:19:01.269Z,50.834778
2023-03-31T07:20:01.230Z,50.834770
2023-03-31T07:21:01.285Z,50.834770
2023-03-31T07:22:01.242Z,50.834763
2023-03-31T07:23:01.246Z,50.834766
2023-03-31T07:24:01.300Z,50.834785
2023-03-31T07:25:01.198Z,50.834793
2023-03-31T07:26:01.229Z,50.834782
2023-03-31T07:27:01.221Z,50.834759
2023-03-31T07:28:01.160Z,50.834755
2023-03-31T07:29:01.169Z,50.834766
2023-03-31T07:30:36.890Z,50.834751
2023-03-31T07:31:01.151Z,50.834770
2023-03-31T07:32:01.213Z,50.834755
2023-03-31T07:33:01.212Z,50.834751
2023-03-31T07:34:01.107Z,50.834759
2023-03-31T07:35:01.109Z,50.834755
2023-03-31T07:36:11.568Z,50.834751
2023-03-31T07:37:03.129Z,50.834755
2023-03-31T07:38:01.090Z,50.834770
2023-03-31T07:39:01.103Z,50.834770
2023-03-31T07:40:01.138Z,50.834766
2023-03-31T07:41:08.383Z,50.834747
2023-03-31T07:42:03.071Z,50.834759
2023-03-31T07:43:01.068Z,50.834789
2023-03-31T07:44:01.085Z,50.834763
2023-03-31T07:45:01.022Z,50.834755
2023-03-31T07:46:01.085Z,50.834785
2023-03-31T07:47:01.026Z,50.834785
2023-03-31T07:48:01.073Z,50.834751
2023-03-31T07:49:01.002Z,50.834766
2023-03-31T07:50:01.959Z,50.834751
2023-03-31T07:51:01.008Z,50.834763
2023-03-31T07:52:00.985Z,50.834801
2023-03-31T07:53:00.983Z,50.834816
2023-03-31T07:54:01.033Z,50.834827
2023-03-31T07:55:00.957Z,50.834824
2023-03-31T07:56:00.959Z,50.834808
2023-03-31T07:57:00.982Z,50.834812
2023-03-31T07:58:00.948Z,50.834812
2023-03-31T07:59:00.938Z,50.834816
2023-03-31T08:00:00.945Z,50.834805
2023-03-31T08:01:00.917Z,50.834785
2023-03-31T08:02:01.028Z,50.834774
2023-03-31T08:03:00.975Z,50.834797
2023-03-31T08:04:01.022Z,50.834789
2023-03-31T08:05:00.900Z,50.834812
2023-03-31T08:06:00.955Z,50.834816
2023-03-31T08:07:00.911Z,50.834793
2023-03-31T08:08:00.940Z,50.834789
2023-03-31T08:09:00.906Z,50.834805
2023-03-31T08:10:00.905Z,50.834812
2023-03-31T08:11:00.927Z,50.834808
2023-03-31T08:12:00.864Z,50.834820
2023-03-31T08:13:00.827Z,50.834812
2023-03-31T08:14:00.824Z,50.834808
2023-03-31T08:15:00.827Z,50.834808
2023-03-31T08:16:00.892Z,50.834820
2023-03-31T08:17:00.798Z,50.834812
2023-03-31T08:18:00.819Z,50.834824
2023-03-31T08:19:00.790Z,50.834808
2023-03-31T08:20:06.105Z,50.834797
2023-03-31T08:21:02.778Z,50.834816
2023-03-31T08:22:00.804Z,50.834808
2023-03-31T08:23:00.737Z,50.834785
2023-03-31T08:24:00.813Z,50.834789
2023-03-31T08:25:00.805Z,50.834820
2023-03-31T08:26:00.734Z,50.834808
2023-03-31T08:27:00.757Z,50.834827
2023-03-31T08:28:00.725Z,50.834801
2023-03-31T08:29:00.774Z,50.834805
2023-03-31T08:30:01.730Z,50.834801
2023-03-31T08:31:00.693Z,50.834824
2023-03-31T08:32:00.724Z,50.834816
2023-03-31T08:33:00.794Z,50.834831
2023-03-31T08:34:00.691Z,50.834808
2023-03-31T08:35:01.396Z,50.834801
2023-03-31T08:36:00.681Z,50.834782
2023-03-31T08:37:00.667Z,50.834801
2023-03-31T08:38:00.724Z,50.834812
2023-03-31T08:39:00.631Z,50.834812
2023-03-31T08:40:00.676Z,50.834789
2023-03-31T08:41:00.624Z,50.834812
2023-03-31T08:42:00.619Z,50.834831
2023-03-31T08:43:00.615Z,50.834827
2023-03-31T08:44:01.314Z,50.834827
2023-03-31T08:45:00.559Z,50.834835
2023-03-31T08:46:00.629Z,50.834835
2023-03-31T08:47:00.603Z,50.834820
2023-03-31T08:48:00.572Z,50.834824
2023-03-31T08:49:00.601Z,50.834835
2023-03-31T08:50:00.551Z,50.834835
2023-03-31T08:51:00.530Z,50.834827
2023-03-31T08:52:00.534Z,50.834835
2023-03-31T08:53:00.538Z,50.834827
2023-03-31T08:54:00.516Z,50.834843
2023-03-31T08:55:00.550Z,50.834835
2023-03-31T08:56:00.544Z,50.834839
2023-03-31T08:57:00.574Z,50.834824
2023-03-31T08:58:00.490Z,50.834846
2023-03-31T08:59:00.504Z,50.834831
2023-03-31T09:00:00.488Z,50.834820
2023-03-31T09:01:00.510Z,50.834839
2023-03-31T09:02:00.519Z,50.834831
2023-03-31T09:03:00.576Z,50.834816
2023-03-31T09:04:00.652Z,50.834824
2023-03-31T09:05:00.538Z,50.834820
2023-03-31T09:06:12.686Z,50.834843
2023-03-31T09:07:02.436Z,50.834843
2023-03-31T09:08:00.424Z,50.834827
2023-03-31T09:09:00.395Z,50.834862
2023-03-31T09:10:00.461Z,50.834846
2023-03-31T09:11:00.404Z,50.834824
2023-03-31T09:12:01.375Z,50.834835
2023-03-31T09:13:00.374Z,50.834820
2023-03-31T09:14:00.398Z,50.834831
2023-03-31T09:15:00.366Z,50.834846
2023-03-31T09:16:00.401Z,50.834820
2023-03-31T09:17:00.393Z,50.834808
2023-03-31T09:18:00.347Z,50.834820
2023-03-31T09:19:00.342Z,50.834820
2023-03-31T09:20:00.306Z,50.834824
2023-03-31T09:21:00.332Z,50.834820
2023-03-31T09:22:00.319Z,50.834789
2023-03-31T09:23:00.328Z,50.834812
2023-03-31T09:24:00.338Z,50.834820
2023-03-31T09:25:00.296Z,50.834820
2023-03-31T09:26:00.844Z,50.834816
2023-03-31T09:27:00.283Z,50.834827
2023-03-31T09:28:00.262Z,50.834812
2023-03-31T09:29:00.305Z,50.834812
2023-03-31T09:30:00.286Z,50.834835
2023-03-31T09:31:00.257Z,50.834812
2023-03-31T09:32:00.321Z,50.834827
2023-03-31T09:33:00.226Z,50.834808
2023-03-31T09:34:00.262Z,50.834843
2023-03-31T09:35:00.222Z,50.834831
2023-03-31T09:36:00.262Z,50.834831
2023-03-31T09:37:00.255Z,50.834797
2023-03-31T09:38:01.265Z,50.834824
2023-03-31T09:39:00.223Z,50.834816
2023-03-31T09:40:00.237Z,50.834808
2023-03-31T09:41:00.241Z,50.834827
2023-03-31T09:42:00.176Z,50.834854
2023-03-31T09:43:00.188Z,50.834850
2023-03-31T09:44:00.181Z,50.834862
2023-03-31T09:45:00.173Z,50.834843
2023-03-31T09:46:08.553Z,50.834824
2023-03-31T09:47:02.158Z,50.834846
2023-03-31T09:48:00.245Z,50.834827
2023-03-31T09:49:00.158Z,50.834827
2023-03-31T09:50:00.264Z,50.834827
2023-03-31T09:51:00.136Z,50.834816
2023-03-31T09:52:00.084Z,50.834820
2023-03-31T09:53:00.136Z,50.834835
2023-03-31T09:54:01.078Z,50.834812
2023-03-31T09:55:00.104Z,50.834805
2023-03-31T09:56:00.137Z,50.834812
2023-03-31T09:57:00.098Z,50.834805
2023-03-31T09:58:00.131Z,50.834824
2023-03-31T09:59:00.192Z,50.834820
2023-03-31T09:59:59.999Z,50.834808
2023-03-31T10:01:00.052Z,50.834816
2023-03-31T10:02:00.197Z,50.834835
2023-03-31T10:03:00.052Z,50.834808
2023-03-31T10:04:00.002Z,50.834816
2023-03-31T10:04:59.986Z,50.834827
2023-03-31T10:05:59.985Z,50.834824
2023-03-31T10:06:59.938Z,50.834824
2023-03-31T10:07:59.923Z,50.834831
2023-03-31T10:08:59.933Z,50.834812
2023-03-31T10:09:59.984Z,50.834812
2023-03-31T10:10:59.928Z,50.834801
2023-03-31T10:11:59.925Z,50.834808
2023-03-31T10:12:59.948Z,50.834824
2023-03-31T10:13:59.979Z,50.834827
2023-03-31T10:14:59.954Z,50.834824
2023-03-31T10:15:59.909Z,50.834820
2023-03-31T10:16:59.913Z,50.834816
2023-03-31T10:17:59.900Z,50.834812
2023-03-31T10:18:59.910Z,50.834812
2023-03-31T10:19:59.874Z,50.834816
2023-03-31T10:20:59.834Z,50.834801
2023-03-31T10:21:59.829Z,50.834801
2023-03-31T10:22:59.822Z,50.834805
2023-03-31T10:23:59.815Z,50.834816
2023-03-31T10:25:00.018Z,50.834824
2023-03-31T10:25:59.833Z,50.834843
2023-03-31T10:27:01.025Z,50.834831
2023-03-31T10:27:59.777Z,50.834816
2023-03-31T10:28:59.770Z,50.834820
2023-03-31T10:29:59.839Z,50.834846
2023-03-31T10:30:59.763Z,50.834835
2023-03-31T10:31:59.797Z,50.834816
2023-03-31T10:34:00.701Z,50.834827
2023-03-31T10:34:59.720Z,50.834831
2023-03-31T10:35:59.821Z,50.834827
2023-03-31T10:36:59.730Z,50.834835
2023-03-31T10:37:59.726Z,50.834843
2023-03-31T10:38:59.703Z,50.834839
2023-03-31T10:39:59.767Z,50.834843
2023-03-31T10:40:59.835Z,50.834854
2023-03-31T10:41:59.701Z,50.834827
2023-03-31T10:42:59.683Z,50.834820
2023-03-31T10:43:59.669Z,50.834816
2023-03-31T10:44:59.676Z,50.834827
2023-03-31T10:45:59.678Z,50.834831
2023-03-31T10:46:59.734Z,50.834839
2023-03-31T10:47:59.682Z,50.834850
2023-03-31T10:48:59.609Z,50.834824
2023-03-31T10:50:00.618Z,50.834831
2023-03-31T10:50:59.601Z,50.834831
2023-03-31T10:51:59.581Z,50.834827
2023-03-31T10:52:59.637Z,50.834843
2023-03-31T10:53:59.590Z,50.834850
2023-03-31T10:54:59.659Z,50.834843
2023-03-31T10:55:59.667Z,50.834843
2023-03-31T10:56:59.672Z,50.834835
2023-03-31T10:57:59.558Z,50.834827
2023-03-31T10:59:05.642Z,50.834835
2023-03-31T11:00:01.516Z,50.834827
2023-03-31T11:00:59.522Z,50.834820
2023-03-31T11:02:00.588Z,50.834816
2023-03-31T11:03:01.169Z,50.834827
2023-03-31T11:03:59.600Z,50.834835
2023-03-31T11:04:59.529Z,50.834839
2023-03-31T11:05:59.520Z,50.834866
2023-03-31T11:06:59.474Z,50.834835
2023-03-31T11:07:59.461Z,50.834824
2023-03-31T11:08:59.457Z,50.834862
2023-03-31T11:09:59.457Z,50.834854
2023-03-31T11:10:59.450Z,50.834824
2023-03-31T11:11:59.963Z,50.834850
2023-03-31T11:13:00.000Z,50.834839
2023-03-31T11:13:59.457Z,50.834820
2023-03-31T11:14:59.452Z,50.834820
2023-03-31T11:15:59.474Z,50.834820
2023-03-31T11:16:59.441Z,50.834816
2023-03-31T11:17:59.403Z,50.834843
2023-03-31T11:18:59.399Z,50.834797
2023-03-31T11:19:59.415Z,50.834835
2023-03-31T11:20:59.411Z,50.834835
2023-03-31T11:21:59.998Z,50.834854
2023-03-31T11:22:59.373Z,50.834850
2023-03-31T11:23:59.354Z,50.834827
2023-03-31T11:24:59.360Z,50.834812
2023-03-31T11:25:59.351Z,50.834824
2023-03-31T11:26:59.336Z,50.834839
2023-03-31T11:28:00.364Z,50.834843
2023-03-31T11:28:59.359Z,50.834846
2023-03-31T11:29:59.298Z,50.834843
2023-03-31T11:30:59.318Z,50.834846
2023-03-31T11:31:59.379Z,50.834869
2023-03-31T11:32:59.299Z,50.834843
2023-03-31T11:33:59.268Z,50.834862
2023-03-31T11:34:59.281Z,50.834904
2023-03-31T11:35:59.304Z,50.834839
2023-03-31T11:36:59.319Z,50.834835
2023-03-31T11:37:59.215Z,50.834843
2023-03-31T11:38:59.240Z,50.834843
2023-03-31T11:39:59.256Z,50.834831
2023-03-31T11:40:59.216Z,50.834846
2023-03-31T11:41:59.249Z,50.834827
2023-03-31T11:42:59.243Z,50.834805
2023-03-31T11:43:59.187Z,50.834812